createdAt,value
2016-12-15T00:00:01.878Z,0
2016-12-15T00:01:01.864Z,0
2016-12-15T00:02:01.851Z,0
2016-12-15T00:03:02.457Z,0
2016-12-15T00:04:01.808Z,0
2016-12-15T00:05:01.795Z,0
2016-12-15T00:06:01.777Z,0
2016-12-15T00:07:01.757Z,0
2016-12-15T00:08:01.794Z,0
2016-12-15T00:09:01.726Z,0
2016-12-15T00:10:01.759Z,0
2016-12-15T00:11:01.686Z,0
2016-12-15T00:12:01.664Z,0
2016-12-15T00:13:01.963Z,0
2016-12-15T00:14:01.964Z,0
2016-12-15T00:15:01.924Z,0
2016-12-15T00:16:01.599Z,0
2016-12-15T00:17:01.576Z,0
2016-12-15T00:18:01.761Z,0
2016-12-15T00:19:01.537Z,0
2016-12-15T00:20:01.839Z,0
2016-12-15T00:21:01.508Z,0
2016-12-15T00:22:01.492Z,0
2016-12-15T00:23:01.476Z,0
2016-12-15T00:24:01.460Z,0
2016-12-15T00:25:01.436Z,0
2016-12-15T00:26:01.421Z,0
2016-12-15T00:27:01.400Z,0
2016-12-15T00:28:01.390Z,0
2016-12-15T00:29:01.674Z,0
2016-12-15T00:30:01.350Z,0
2016-12-15T00:31:01.331Z,0
2016-12-15T00:32:01.319Z,0
2016-12-15T00:33:01.310Z,0
2016-12-15T00:34:01.282Z,0
2016-12-15T00:35:01.259Z,0
2016-12-15T00:36:01.245Z,0
2016-12-15T00:37:01.224Z,0
2016-12-15T00:38:01.516Z,0
2016-12-15T00:39:01.195Z,0
2016-12-15T00:40:01.170Z,0
2016-12-15T00:41:01.154Z,0
2016-12-15T00:42:01.143Z,0
2016-12-15T00:43:01.119Z,0
2016-12-15T00:44:01.098Z,0
2016-12-15T00:45:01.084Z,0
2016-12-15T00:46:01.069Z,0
2016-12-15T00:47:01.050Z,0
2016-12-15T00:48:01.406Z,0
2016-12-15T00:49:01.009Z,0
2016-12-15T00:50:01.312Z,0
2016-12-15T00:51:01.293Z,0
2016-12-15T00:52:00.960Z,0
2016-12-15T00:53:00.940Z,0
2016-12-15T00:54:00.930Z,0
2016-12-15T00:55:00.906Z,0
2016-12-15T00:56:00.885Z,0
2016-12-15T00:57:00.879Z,0
2016-12-15T00:58:00.850Z,0
2016-12-15T00:59:00.834Z,0
2016-12-15T01:00:00.840Z,0
2016-12-15T01:01:01.119Z,0
2016-12-15T01:02:00.829Z,0
2016-12-15T01:03:00.764Z,0
2016-12-15T01:04:00.742Z,0
2016-12-15T01:05:00.727Z,0
2016-12-15T01:06:00.711Z,0
2016-12-15T01:07:00.736Z,0
2016-12-15T01:08:00.677Z,0
2016-12-15T01:09:00.654Z,0
2016-12-15T01:10:00.648Z,0
2016-12-15T01:11:01.265Z,0
2016-12-15T01:12:00.598Z,0
2016-12-15T01:13:00.898Z,0
2016-12-15T01:14:00.561Z,0
2016-12-15T01:15:00.540Z,0
2016-12-15T01:16:00.533Z,0
2016-12-15T01:17:00.506Z,0
2016-12-15T01:18:00.810Z,0
2016-12-15T01:19:00.473Z,0
2016-12-15T01:20:00.459Z,0
2016-12-15T01:21:00.439Z,0
2016-12-15T01:22:01.046Z,0
2016-12-15T01:23:00.405Z,0
2016-12-15T01:24:01.006Z,0
2016-12-15T01:25:00.410Z,0
2016-12-15T01:26:00.660Z,0
2016-12-15T01:27:00.330Z,0
2016-12-15T01:28:00.339Z,0
2016-12-15T01:29:00.604Z,0
2016-12-15T01:30:00.269Z,0
2016-12-15T01:31:00.255Z,0
2016-12-15T01:32:00.242Z,0
2016-12-15T01:33:00.214Z,0
2016-12-15T01:34:00.194Z,0
2016-12-15T01:35:00.179Z,0
2016-12-15T01:36:00.167Z,0
2016-12-15T01:37:00.137Z,0
2016-12-15T01:38:00.133Z,0
2016-12-15T01:39:00.420Z,0
2016-12-15T01:40:00.082Z,0
2016-12-15T01:41:00.073Z,0
2016-12-15T01:42:00.056Z,0
2016-12-15T01:43:00.031Z,0
2016-12-15T01:44:00.013Z,0
2016-12-15T01:45:00.000Z,0
2016-12-15T01:46:00.289Z,0
2016-12-15T01:46:59.991Z,0
2016-12-15T01:47:59.940Z,0
2016-12-15T01:49:00.233Z,0
2016-12-15T01:49:59.909Z,0
2016-12-15T01:50:59.880Z,0
2016-12-15T01:51:59.865Z,0
2016-12-15T01:53:00.157Z,0
2016-12-15T01:53:59.827Z,0
2016-12-15T01:54:59.811Z,0
2016-12-15T01:56:00.108Z,0
2016-12-15T01:56:59.805Z,0
2016-12-15T01:57:59.757Z,0
2016-12-15T01:58:59.743Z,0
2016-12-15T01:59:59.717Z,0
2016-12-15T02:00:59.695Z,0
2016-12-15T02:01:59.995Z,0
2016-12-15T02:02:59.656Z,0
2016-12-15T02:03:59.690Z,0
2016-12-15T02:04:59.946Z,0
2016-12-15T02:05:59.607Z,0
2016-12-15T02:06:59.584Z,0
2016-12-15T02:07:59.565Z,0
2016-12-15T02:08:59.545Z,0
2016-12-15T02:09:59.534Z,0
2016-12-15T02:10:59.510Z,0
2016-12-15T02:11:59.543Z,0
2016-12-15T02:12:59.473Z,0
2016-12-15T02:13:59.453Z,0
2016-12-15T02:14:59.436Z,0
2016-12-15T02:15:59.417Z,0
2016-12-15T02:16:59.395Z,0
2016-12-15T02:17:59.583Z,0
2016-12-15T02:18:59.358Z,0
2016-12-15T02:19:59.648Z,0
2016-12-15T02:20:59.633Z,0
2016-12-15T02:21:59.309Z,0
2016-12-15T02:22:59.291Z,0
2016-12-15T02:23:59.263Z,0
2016-12-15T02:24:59.253Z,0
2016-12-15T02:25:59.227Z,0
2016-12-15T02:26:59.212Z,0
2016-12-15T02:27:59.193Z,0
2016-12-15T02:28:59.481Z,0
2016-12-15T02:29:59.148Z,0
2016-12-15T02:30:59.132Z,0
2016-12-15T02:31:59.424Z,0
2016-12-15T02:32:59.096Z,0
2016-12-15T02:33:59.074Z,0
2016-12-15T02:34:59.053Z,0
2016-12-15T02:35:59.039Z,0
2016-12-15T02:36:59.328Z,0
2016-12-15T02:37:58.995Z,0
2016-12-15T02:38:58.981Z,0
2016-12-15T02:39:58.964Z,0
2016-12-15T02:40:59.249Z,0
2016-12-15T02:41:58.921Z,0
2016-12-15T02:42:59.219Z,0
2016-12-15T02:43:58.880Z,0
2016-12-15T02:44:58.867Z,0
2016-12-15T02:45:59.155Z,0
2016-12-15T02:46:59.165Z,0
2016-12-15T02:47:59.119Z,0
2016-12-15T02:48:58.787Z,0
2016-12-15T02:49:59.078Z,0
2016-12-15T02:50:58.749Z,0
2016-12-15T02:51:59.040Z,0
2016-12-15T02:52:58.712Z,0
2016-12-15T02:53:58.692Z,0
2016-12-15T02:54:58.671Z,0
2016-12-15T02:55:58.657Z,0
2016-12-15T02:56:58.943Z,0
2016-12-15T02:57:58.611Z,0
2016-12-15T02:58:58.598Z,0
2016-12-15T02:59:58.573Z,0
2016-12-15T03:00:58.554Z,0
2016-12-15T03:01:58.534Z,0
2016-12-15T03:02:58.544Z,0
2016-12-15T03:03:58.805Z,0
2016-12-15T03:04:58.518Z,0
2016-12-15T03:05:58.454Z,0
2016-12-15T03:06:58.446Z,0
2016-12-15T03:07:58.732Z,0
2016-12-15T03:08:58.407Z,0
2016-12-15T03:09:58.693Z,0
2016-12-15T03:10:58.365Z,0
2016-12-15T03:11:58.338Z,0
2016-12-15T03:12:58.635Z,0
2016-12-15T03:13:58.625Z,0
2016-12-15T03:14:58.280Z,0
2016-12-15T03:15:58.575Z,0
2016-12-15T03:16:58.557Z,0
2016-12-15T03:17:58.256Z,0
2016-12-15T03:18:58.210Z,0
2016-12-15T03:19:58.180Z,0
2016-12-15T03:20:58.168Z,0
2016-12-15T03:21:58.143Z,0
2016-12-15T03:22:58.128Z,0
2016-12-15T03:23:58.112Z,0
2016-12-15T03:24:58.087Z,0
2016-12-15T03:25:58.385Z,0
2016-12-15T03:26:58.085Z,0
2016-12-15T03:27:58.028Z,0
2016-12-15T03:28:58.014Z,0
2016-12-15T03:29:58.307Z,0
2016-12-15T03:30:57.968Z,0
2016-12-15T03:31:57.950Z,0
2016-12-15T03:32:57.934Z,0
2016-12-15T03:33:57.913Z,0
2016-12-15T03:34:58.205Z,0
2016-12-15T03:35:57.875Z,0
2016-12-15T03:36:57.850Z,0
2016-12-15T03:37:57.834Z,0
2016-12-15T03:38:57.813Z,0
2016-12-15T03:39:58.109Z,0
2016-12-15T03:40:58.096Z,0
2016-12-15T03:41:57.756Z,0
2016-12-15T03:42:57.740Z,0
2016-12-15T03:43:57.747Z,0
2016-12-15T03:44:58.319Z,0
2016-12-15T03:45:57.690Z,0
2016-12-15T03:46:57.659Z,0
2016-12-15T03:47:57.642Z,0
2016-12-15T03:48:57.616Z,0
2016-12-15T03:49:57.601Z,0
2016-12-15T03:50:57.582Z,0
2016-12-15T03:51:57.871Z,0
2016-12-15T03:52:57.541Z,0
2016-12-15T03:53:57.549Z,0
2016-12-15T03:54:57.505Z,0
2016-12-15T03:55:57.482Z,0
2016-12-15T03:56:57.462Z,0
2016-12-15T03:57:57.457Z,0
2016-12-15T03:58:57.422Z,0
2016-12-15T03:59:57.399Z,0
2016-12-15T04:00:57.693Z,0
2016-12-15T04:01:57.677Z,0
2016-12-15T04:02:57.342Z,0
2016-12-15T04:03:57.321Z,0
2016-12-15T04:04:57.303Z,0
2016-12-15T04:05:57.287Z,0
2016-12-15T04:06:57.315Z,0
2016-12-15T04:07:57.551Z,0
2016-12-15T04:08:57.225Z,0
2016-12-15T04:09:57.202Z,0
2016-12-15T04:10:57.825Z,0
2016-12-15T04:11:57.173Z,0
2016-12-15T04:12:57.151Z,0
2016-12-15T04:13:57.142Z,0
2016-12-15T04:14:57.108Z,0
2016-12-15T04:15:57.087Z,0
2016-12-15T04:16:57.068Z,0
2016-12-15T04:17:57.499Z,0
2016-12-15T04:18:57.341Z,0
2016-12-15T04:19:57.003Z,0
2016-12-15T04:20:56.986Z,0
2016-12-15T04:21:56.965Z,0
2016-12-15T04:22:56.943Z,0
2016-12-15T04:23:56.928Z,0
2016-12-15T04:24:56.905Z,0
2016-12-15T04:25:56.888Z,0
2016-12-15T04:26:56.873Z,0
2016-12-15T04:27:56.847Z,0
2016-12-15T04:28:56.885Z,0
2016-12-15T04:29:56.811Z,0
2016-12-15T04:30:56.790Z,0
2016-12-15T04:31:57.082Z,0
2016-12-15T04:32:57.069Z,0
2016-12-15T04:33:56.723Z,0
2016-12-15T04:34:56.708Z,0
2016-12-15T04:35:57.061Z,0
2016-12-15T04:36:56.697Z,0
2016-12-15T04:37:56.649Z,0
2016-12-15T04:38:56.637Z,0
2016-12-15T04:39:56.925Z,0
2016-12-15T04:40:56.593Z,0
2016-12-15T04:41:56.887Z,0
2016-12-15T04:42:56.546Z,0
2016-12-15T04:43:56.526Z,0
2016-12-15T04:44:56.509Z,0
2016-12-15T04:45:56.812Z,0
2016-12-15T04:46:56.477Z,0
2016-12-15T04:47:56.763Z,0
2016-12-15T04:48:56.444Z,0
2016-12-15T04:49:56.732Z,0
2016-12-15T04:50:57.019Z,0
2016-12-15T04:51:56.370Z,0
2016-12-15T04:52:56.354Z,0
2016-12-15T04:53:56.333Z,0
2016-12-15T04:54:56.315Z,0
2016-12-15T04:55:56.301Z,0
2016-12-15T04:56:56.319Z,0
2016-12-15T04:57:56.251Z,0
2016-12-15T04:58:56.542Z,0
2016-12-15T04:59:56.210Z,0
2016-12-15T05:00:56.194Z,0
2016-12-15T05:01:56.490Z,0
2016-12-15T05:02:56.223Z,0
2016-12-15T05:03:56.133Z,0
2016-12-15T05:04:56.113Z,0
2016-12-15T05:05:56.091Z,0
2016-12-15T05:06:56.393Z,0
2016-12-15T05:07:56.053Z,0
2016-12-15T05:08:56.045Z,0
2016-12-15T05:09:56.013Z,0
2016-12-15T05:10:55.994Z,0
2016-12-15T05:11:55.971Z,0
2016-12-15T05:12:55.948Z,0
2016-12-15T05:13:55.935Z,0
2016-12-15T05:14:55.913Z,0
2016-12-15T05:15:55.892Z,0
2016-12-15T05:16:55.872Z,0
2016-12-15T05:17:55.856Z,0
2016-12-15T05:18:55.849Z,0
2016-12-15T05:19:55.815Z,0
2016-12-15T05:20:56.418Z,0
2016-12-15T05:21:55.771Z,0
2016-12-15T05:22:55.750Z,0
2016-12-15T05:23:55.733Z,0
2016-12-15T05:24:55.718Z,0
2016-12-15T05:25:55.691Z,0
2016-12-15T05:26:55.678Z,0
2016-12-15T05:27:55.646Z,0
2016-12-15T05:28:55.951Z,0
2016-12-15T05:29:55.618Z,0
2016-12-15T05:30:55.907Z,0
2016-12-15T05:31:55.571Z,0
2016-12-15T05:32:55.555Z,0
2016-12-15T05:33:55.530Z,0
2016-12-15T05:34:55.541Z,0
2016-12-15T05:35:55.490Z,0
2016-12-15T05:36:55.473Z,0
2016-12-15T05:37:55.767Z,0
2016-12-15T05:38:55.432Z,0
2016-12-15T05:39:55.415Z,0
2016-12-15T05:40:55.400Z,0
2016-12-15T05:41:55.686Z,0
2016-12-15T05:42:55.355Z,0
2016-12-15T05:43:55.333Z,0
2016-12-15T05:44:55.311Z,0
2016-12-15T05:45:55.288Z,0
2016-12-15T05:46:55.271Z,0
2016-12-15T05:47:55.250Z,0
2016-12-15T05:48:55.544Z,0
2016-12-15T05:49:55.526Z,0
2016-12-15T05:50:55.238Z,0
2016-12-15T05:51:55.830Z,0
2016-12-15T05:52:55.186Z,0
2016-12-15T05:53:55.149Z,0
2016-12-15T05:54:55.448Z,0
2016-12-15T05:55:55.401Z,0
2016-12-15T05:56:55.081Z,0
2016-12-15T05:57:55.055Z,0
2016-12-15T05:58:55.028Z,0
2016-12-15T05:59:55.009Z,0
2016-12-15T06:00:55.324Z,0
2016-12-15T06:01:55.278Z,0
2016-12-15T06:02:54.948Z,0
2016-12-15T06:03:54.928Z,0
2016-12-15T06:04:54.912Z,0
2016-12-15T06:05:54.891Z,0
2016-12-15T06:06:54.868Z,0
2016-12-15T06:07:54.848Z,0
2016-12-15T06:08:54.826Z,0
2016-12-15T06:09:54.810Z,0
2016-12-15T06:10:55.108Z,0
2016-12-15T06:11:54.780Z,0
2016-12-15T06:12:54.752Z,0
2016-12-15T06:13:54.723Z,0
2016-12-15T06:14:54.716Z,0
2016-12-15T06:15:54.691Z,0
2016-12-15T06:16:55.009Z,0
2016-12-15T06:17:54.860Z,0
2016-12-15T06:18:54.627Z,0
2016-12-15T06:19:54.611Z,0
2016-12-15T06:20:54.592Z,0
2016-12-15T06:21:54.567Z,0
2016-12-15T06:22:54.555Z,0
2016-12-15T06:23:54.850Z,0
2016-12-15T06:24:54.512Z,0
2016-12-15T06:25:54.812Z,0
2016-12-15T06:26:54.482Z,0
2016-12-15T06:27:54.461Z,0
2016-12-15T06:28:54.435Z,0
2016-12-15T06:29:54.413Z,0
2016-12-15T06:30:54.395Z,0
2016-12-15T06:31:54.384Z,0
2016-12-15T06:32:54.354Z,0
2016-12-15T06:33:54.341Z,0
2016-12-15T06:34:54.635Z,0
2016-12-15T06:35:54.294Z,0
2016-12-15T06:36:54.286Z,0
2016-12-15T06:37:54.253Z,0
2016-12-15T06:38:54.238Z,0
2016-12-15T06:39:54.218Z,0
2016-12-15T06:40:54.199Z,0
2016-12-15T06:41:54.232Z,0
2016-12-15T06:42:54.171Z,0
2016-12-15T06:43:54.455Z,0
2016-12-15T06:44:54.469Z,0
2016-12-15T06:45:54.101Z,0
2016-12-15T06:46:54.085Z,0
2016-12-15T06:47:54.070Z,0
2016-12-15T06:48:54.041Z,0
2016-12-15T06:49:54.026Z,0
2016-12-15T06:50:54.011Z,0
2016-12-15T06:51:53.997Z,0
2016-12-15T06:52:53.982Z,0
2016-12-15T06:53:53.954Z,4
2016-12-15T06:54:53.975Z,4
2016-12-15T06:55:53.915Z,0
2016-12-15T06:56:53.898Z,0
2016-12-15T06:57:53.872Z,4
2016-12-15T06:58:53.855Z,4
2016-12-15T06:59:53.840Z,4
2016-12-15T07:00:53.820Z,4
2016-12-15T07:01:53.794Z,4
2016-12-15T07:02:53.771Z,4
2016-12-15T07:03:53.762Z,4
2016-12-15T07:04:54.376Z,8
2016-12-15T07:05:54.028Z,8
2016-12-15T07:06:53.701Z,8
2016-12-15T07:07:53.680Z,12
2016-12-15T07:08:53.657Z,12
2016-12-15T07:09:53.644Z,12
2016-12-15T07:10:55.086Z,12
2016-12-15T07:11:53.632Z,16
2016-12-15T07:12:53.617Z,16
2016-12-15T07:13:53.884Z,20
2016-12-15T07:14:53.556Z,20
2016-12-15T07:15:53.841Z,24
2016-12-15T07:16:53.822Z,24
2016-12-15T07:17:53.490Z,28
2016-12-15T07:18:53.788Z,32
2016-12-15T07:19:53.453Z,36
2016-12-15T07:20:53.476Z,40
2016-12-15T07:21:53.731Z,44
2016-12-15T07:22:53.397Z,44
2016-12-15T07:23:53.691Z,52
2016-12-15T07:24:53.675Z,56
2016-12-15T07:25:53.690Z,60
2016-12-15T07:26:53.323Z,64
2016-12-15T07:27:53.618Z,68
2016-12-15T07:28:53.289Z,76
2016-12-15T07:29:53.276Z,84
2016-12-15T07:30:53.249Z,92
2016-12-15T07:31:53.235Z,100
2016-12-15T07:32:53.221Z,104
2016-12-15T07:33:53.196Z,108
2016-12-15T07:34:53.178Z,116
2016-12-15T07:35:53.158Z,120
2016-12-15T07:36:53.145Z,124
2016-12-15T07:37:53.146Z,132
2016-12-15T07:38:53.102Z,140
2016-12-15T07:39:53.085Z,148
2016-12-15T07:40:53.377Z,152
2016-12-15T07:41:53.046Z,164
2016-12-15T07:42:53.026Z,164
2016-12-15T07:43:53.008Z,164
2016-12-15T07:44:52.994Z,176
2016-12-15T07:45:53.029Z,180
2016-12-15T07:46:53.265Z,192
2016-12-15T07:47:53.246Z,196
2016-12-15T07:48:52.955Z,204
2016-12-15T07:49:52.896Z,212
2016-12-15T07:50:52.881Z,220
2016-12-15T07:51:52.912Z,228
2016-12-15T07:52:52.849Z,232
2016-12-15T07:53:52.836Z,240
2016-12-15T07:54:53.128Z,264
2016-12-15T07:55:52.814Z,276
2016-12-15T07:56:52.770Z,284
2016-12-15T07:57:53.068Z,288
2016-12-15T07:58:52.731Z,300
2016-12-15T07:59:52.714Z,320
2016-12-15T08:00:52.696Z,348
2016-12-15T08:01:52.680Z,356
2016-12-15T08:02:52.976Z,360
2016-12-15T08:03:52.952Z,372
2016-12-15T08:04:52.632Z,384
2016-12-15T08:05:52.609Z,404
2016-12-15T08:06:52.922Z,448
2016-12-15T08:07:52.914Z,476
2016-12-15T08:08:52.883Z,472
2016-12-15T08:09:53.156Z,460
2016-12-15T08:10:52.516Z,472
2016-12-15T08:11:52.802Z,472
2016-12-15T08:12:52.472Z,468
2016-12-15T08:13:52.457Z,464
2016-12-15T08:14:52.446Z,472
2016-12-15T08:15:52.419Z,488
2016-12-15T08:16:52.723Z,516
2016-12-15T08:17:52.384Z,560
2016-12-15T08:18:52.563Z,616
2016-12-15T08:19:52.655Z,644
2016-12-15T08:20:52.323Z,656
2016-12-15T08:21:52.306Z,636
2016-12-15T08:22:52.297Z,668
2016-12-15T08:23:52.275Z,664
2016-12-15T08:24:52.253Z,616
2016-12-15T08:25:52.233Z,664
2016-12-15T08:26:52.209Z,688
2016-12-15T08:27:52.195Z,720
2016-12-15T08:28:52.213Z,792
2016-12-15T08:29:52.175Z,792
2016-12-15T08:30:52.166Z,784
2016-12-15T08:31:52.442Z,824
2016-12-15T08:32:52.106Z,920
2016-12-15T08:33:52.397Z,964
2016-12-15T08:34:52.437Z,912
2016-12-15T08:35:52.052Z,868
2016-12-15T08:36:52.066Z,876
2016-12-15T08:37:52.015Z,876
2016-12-15T08:38:52.004Z,856
2016-12-15T08:39:51.998Z,876
2016-12-15T08:40:51.980Z,876
2016-12-15T08:41:52.258Z,944
2016-12-15T08:42:51.928Z,960
2016-12-15T08:43:51.959Z,940
2016-12-15T08:44:51.899Z,976
2016-12-15T08:45:51.874Z,1000
2016-12-15T08:46:51.854Z,956
2016-12-15T08:47:52.153Z,976
2016-12-15T08:48:51.816Z,956
2016-12-15T08:49:52.122Z,960
2016-12-15T08:50:52.101Z,992
2016-12-15T08:51:51.762Z,1104
2016-12-15T08:52:51.745Z,1216
2016-12-15T08:53:51.725Z,1256
2016-12-15T08:54:52.039Z,1228
2016-12-15T08:55:51.689Z,1272
2016-12-15T08:56:52.305Z,1140
2016-12-15T08:57:51.659Z,1168
2016-12-15T08:58:52.263Z,1160
2016-12-15T08:59:51.621Z,1208
2016-12-15T09:00:51.604Z,1248
2016-12-15T09:01:51.589Z,1320
2016-12-15T09:02:51.565Z,1332
2016-12-15T09:03:51.551Z,1324
2016-12-15T09:04:51.857Z,1400
2016-12-15T09:05:51.845Z,1428
2016-12-15T09:06:51.509Z,1388
2016-12-15T09:07:51.489Z,1472
2016-12-15T09:08:51.774Z,1496
2016-12-15T09:09:51.494Z,1532
2016-12-15T09:10:51.736Z,1508
2016-12-15T09:11:51.405Z,1500
2016-12-15T09:12:51.396Z,1460
2016-12-15T09:13:51.682Z,1564
2016-12-15T09:14:51.384Z,1568
2016-12-15T09:15:51.370Z,1636
2016-12-15T09:16:51.639Z,1644
2016-12-15T09:17:51.621Z,1684
2016-12-15T09:18:51.607Z,1644
2016-12-15T09:19:51.281Z,1632
2016-12-15T09:20:51.250Z,1688
2016-12-15T09:21:51.230Z,1772
2016-12-15T09:22:51.215Z,1784
2016-12-15T09:23:51.516Z,1832
2016-12-15T09:24:51.492Z,1812
2016-12-15T09:25:51.170Z,1924
2016-12-15T09:26:51.462Z,2088
2016-12-15T09:27:51.131Z,2052
2016-12-15T09:28:51.105Z,2176
2016-12-15T09:29:51.406Z,2296
2016-12-15T09:30:51.075Z,2056
2016-12-15T09:31:51.055Z,2128
2016-12-15T09:32:51.039Z,2164
2016-12-15T09:33:51.023Z,2396
2016-12-15T09:34:51.010Z,2400
2016-12-15T09:35:50.988Z,2268
2016-12-15T09:36:51.294Z,2560
2016-12-15T09:37:50.956Z,2496
2016-12-15T09:38:50.935Z,2408
2016-12-15T09:39:51.245Z,2376
2016-12-15T09:40:51.215Z,2764
2016-12-15T09:41:50.886Z,2760
2016-12-15T09:42:51.178Z,2824
2016-12-15T09:43:51.159Z,2748
2016-12-15T09:44:51.148Z,2756
2016-12-15T09:45:50.814Z,2584
2016-12-15T09:46:50.834Z,2428
2016-12-15T09:47:50.772Z,2300
2016-12-15T09:48:50.761Z,2464
2016-12-15T09:49:50.747Z,2484
2016-12-15T09:50:50.729Z,2836
2016-12-15T09:51:50.721Z,3068
2016-12-15T09:52:50.689Z,2944
2016-12-15T09:53:50.679Z,2808
2016-12-15T09:54:50.661Z,3092
2016-12-15T09:55:50.955Z,3044
2016-12-15T09:56:50.623Z,3392
2016-12-15T09:57:50.610Z,3220
2016-12-15T09:58:50.589Z,2880
2016-12-15T09:59:50.575Z,3156
2016-12-15T10:00:50.554Z,3388
2016-12-15T10:01:50.540Z,3828
2016-12-15T10:02:50.849Z,3936
2016-12-15T10:03:50.518Z,3924
2016-12-15T10:04:50.805Z,3816
2016-12-15T10:05:50.473Z,3952
2016-12-15T10:06:50.450Z,4272
2016-12-15T10:07:50.767Z,4732
2016-12-15T10:08:50.755Z,5252
2016-12-15T10:09:50.712Z,5712
2016-12-15T10:10:50.728Z,6016
2016-12-15T10:11:50.366Z,6208
2016-12-15T10:12:50.357Z,5828
2016-12-15T10:13:50.339Z,6688
2016-12-15T10:14:50.314Z,8004
2016-12-15T10:15:50.608Z,8240
2016-12-15T10:16:50.285Z,8152
2016-12-15T10:17:50.275Z,10872
2016-12-15T10:18:50.448Z,10280
2016-12-15T10:19:50.233Z,9140
2016-12-15T10:20:50.221Z,9608
2016-12-15T10:21:50.828Z,7724
2016-12-15T10:22:50.505Z,7192
2016-12-15T10:23:50.168Z,7424
2016-12-15T10:24:50.155Z,6688
2016-12-15T10:25:50.141Z,6380
2016-12-15T10:26:50.128Z,6980
2016-12-15T10:27:50.109Z,7872
2016-12-15T10:28:50.402Z,8620
2016-12-15T10:29:50.107Z,8856
2016-12-15T10:30:50.381Z,9064
2016-12-15T10:31:50.365Z,8524
2016-12-15T10:32:50.034Z,8344
2016-12-15T10:33:50.015Z,7896
2016-12-15T10:34:50.323Z,8244
2016-12-15T10:35:49.991Z,7600
2016-12-15T10:36:49.976Z,8068
2016-12-15T10:37:49.962Z,8376
2016-12-15T10:38:50.259Z,8084
2016-12-15T10:39:50.246Z,7912
2016-12-15T10:40:50.230Z,7236
2016-12-15T10:41:50.218Z,5856
2016-12-15T10:42:49.903Z,5260
2016-12-15T10:43:49.882Z,5016
2016-12-15T10:44:50.183Z,5800
2016-12-15T10:45:49.852Z,6140
2016-12-15T10:46:50.151Z,5584
2016-12-15T10:47:50.142Z,6920
2016-12-15T10:48:49.851Z,7580
2016-12-15T10:49:50.120Z,8196
2016-12-15T10:50:50.096Z,9292
2016-12-15T10:51:50.129Z,9384
2016-12-15T10:52:50.073Z,8436
2016-12-15T10:53:50.050Z,11020
2016-12-15T10:54:49.737Z,11056
2016-12-15T10:55:50.036Z,12556
2016-12-15T10:56:49.705Z,11228
2016-12-15T10:57:49.695Z,10104
2016-12-15T10:58:49.989Z,9112
2016-12-15T10:59:49.983Z,8748
2016-12-15T11:00:49.968Z,7240
2016-12-15T11:01:49.635Z,8968
2016-12-15T11:02:49.632Z,9868
2016-12-15T11:03:49.927Z,6216
2016-12-15T11:04:49.600Z,6900
2016-12-15T11:05:49.583Z,7392
2016-12-15T11:06:49.573Z,8384
2016-12-15T11:07:49.562Z,9264
2016-12-15T11:08:49.886Z,9996
2016-12-15T11:09:49.546Z,8040
2016-12-15T11:10:49.523Z,7680
2016-12-15T11:11:49.521Z,7752
2016-12-15T11:12:49.529Z,8476
2016-12-15T11:13:49.495Z,6988
2016-12-15T11:14:49.472Z,6988
2016-12-15T11:15:49.767Z,6880
2016-12-15T11:16:49.454Z,6456
2016-12-15T11:17:49.431Z,7180
2016-12-15T11:18:49.418Z,6156
2016-12-15T11:19:49.411Z,6436
2016-12-15T11:20:49.389Z,7608
2016-12-15T11:21:49.378Z,8684
2016-12-15T11:22:49.369Z,7976
2016-12-15T11:23:49.673Z,7016
2016-12-15T11:24:49.347Z,6648
2016-12-15T11:25:49.371Z,6896
2016-12-15T11:26:49.318Z,6800
2016-12-15T11:27:49.304Z,5752
2016-12-15T11:28:49.339Z,5624
2016-12-15T11:29:49.275Z,5492
2016-12-15T11:30:49.266Z,5568
2016-12-15T11:31:49.264Z,5548
2016-12-15T11:32:49.239Z,5328
2016-12-15T11:33:49.239Z,5500
2016-12-15T11:34:49.217Z,5492
2016-12-15T11:35:49.204Z,5900
2016-12-15T11:36:49.184Z,5828
2016-12-15T11:37:49.484Z,5860
2016-12-15T11:38:49.159Z,5720
2016-12-15T11:39:49.145Z,5532
2016-12-15T11:40:49.444Z,5416
2016-12-15T11:41:49.129Z,5200
2016-12-15T11:42:49.110Z,5296
2016-12-15T11:43:49.095Z,5584
2016-12-15T11:44:49.406Z,6164
2016-12-15T11:45:49.079Z,6724
2016-12-15T11:46:49.358Z,6708
2016-12-15T11:47:49.347Z,7312
2016-12-15T11:48:49.337Z,9204
2016-12-15T11:49:49.013Z,10048
2016-12-15T11:50:49.018Z,8376
2016-12-15T11:51:48.981Z,7552
2016-12-15T11:52:49.294Z,6128
2016-12-15T11:53:49.266Z,6392
2016-12-15T11:54:48.992Z,6536
2016-12-15T11:55:48.925Z,6924
2016-12-15T11:56:48.937Z,7140
2016-12-15T11:57:48.898Z,7924
2016-12-15T11:58:49.197Z,8976
2016-12-15T11:59:48.880Z,10324
2016-12-15T12:00:49.171Z,10676
2016-12-15T12:01:48.854Z,10248
2016-12-15T12:02:49.148Z,10628
2016-12-15T12:03:48.817Z,10876
2016-12-15T12:04:49.438Z,10940
2016-12-15T12:05:49.104Z,10756
2016-12-15T12:06:48.770Z,11332
2016-12-15T12:07:48.815Z,11476
2016-12-15T12:08:48.745Z,11628
2016-12-15T12:09:48.734Z,14412
2016-12-15T12:10:48.727Z,15872
2016-12-15T12:11:49.337Z,14880
2016-12-15T12:12:48.693Z,16320
2016-12-15T12:13:48.679Z,15872
2016-12-15T12:14:48.668Z,14368
2016-12-15T12:15:48.661Z,14912
2016-12-15T12:16:48.974Z,15136
2016-12-15T12:17:49.092Z,14880
2016-12-15T12:18:48.843Z,13892
2016-12-15T12:19:48.622Z,14256
2016-12-15T12:20:48.618Z,13764
2016-12-15T12:21:48.597Z,14432
2016-12-15T12:22:48.594Z,13892
2016-12-15T12:23:48.896Z,14400
2016-12-15T12:24:48.578Z,13012
2016-12-15T12:25:48.564Z,13324
2016-12-15T12:26:48.556Z,11408
2016-12-15T12:27:48.857Z,10856
2016-12-15T12:28:48.578Z,11612
2016-12-15T12:29:48.541Z,11160
2016-12-15T12:30:48.526Z,12184
2016-12-15T12:31:48.523Z,13280
2016-12-15T12:32:48.515Z,12960
2016-12-15T12:33:48.520Z,11212
2016-12-15T12:34:48.500Z,11408
2016-12-15T12:35:48.496Z,13824
2016-12-15T12:36:48.489Z,11008
2016-12-15T12:37:48.484Z,10412
2016-12-15T12:38:48.804Z,12392
2016-12-15T12:39:48.474Z,9376
2016-12-15T12:40:48.465Z,13288
2016-12-15T12:41:48.462Z,14432
2016-12-15T12:42:48.764Z,11784
2016-12-15T12:43:48.762Z,16256
2016-12-15T12:44:48.451Z,16992
2016-12-15T12:45:48.440Z,17152
2016-12-15T12:46:48.753Z,15104
2016-12-15T12:47:48.439Z,13148
2016-12-15T12:48:48.740Z,8512
2016-12-15T12:49:48.741Z,8272
2016-12-15T12:50:48.412Z,11428
2016-12-15T12:51:48.409Z,9996
2016-12-15T12:52:48.733Z,10160
2016-12-15T12:53:48.402Z,7896
2016-12-15T12:54:48.394Z,7448
2016-12-15T12:55:48.386Z,5916
2016-12-15T12:56:48.382Z,5140
2016-12-15T12:57:48.376Z,5364
2016-12-15T12:58:48.374Z,7044
2016-12-15T12:59:48.365Z,6528
2016-12-15T13:00:48.362Z,6192
2016-12-15T13:01:48.680Z,7028
2016-12-15T13:02:48.659Z,6152
2016-12-15T13:03:48.342Z,8136
2016-12-15T13:04:48.329Z,7496
2016-12-15T13:05:48.353Z,7524
2016-12-15T13:06:48.320Z,6140
2016-12-15T13:07:48.308Z,6744
2016-12-15T13:08:48.309Z,6640
2016-12-15T13:09:48.606Z,6200
2016-12-15T13:10:48.282Z,8276
2016-12-15T13:11:48.279Z,5220
2016-12-15T13:12:48.609Z,4808
2016-12-15T13:13:48.274Z,6996
2016-12-15T13:14:48.267Z,8416
2016-12-15T13:15:48.249Z,6544
2016-12-15T13:16:48.552Z,8256
2016-12-15T13:17:48.232Z,8664
2016-12-15T13:18:48.218Z,9472
2016-12-15T13:19:48.202Z,9836
2016-12-15T13:20:48.196Z,10060
2016-12-15T13:21:48.502Z,10504
2016-12-15T13:22:48.180Z,10884
2016-12-15T13:23:48.172Z,11220
2016-12-15T13:24:48.163Z,11192
2016-12-15T13:25:48.481Z,11476
2016-12-15T13:26:48.460Z,11604
2016-12-15T13:27:48.144Z,11616
2016-12-15T13:28:48.139Z,11680
2016-12-15T13:29:48.125Z,11316
2016-12-15T13:30:48.126Z,10716
2016-12-15T13:31:48.110Z,10456
2016-12-15T13:32:48.117Z,9964
2016-12-15T13:33:48.096Z,9608
2016-12-15T13:34:48.081Z,9312
2016-12-15T13:35:48.395Z,9256
2016-12-15T13:36:48.110Z,9284
2016-12-15T13:37:48.070Z,9312
2016-12-15T13:38:48.379Z,8948
2016-12-15T13:39:48.052Z,8516
2016-12-15T13:40:48.051Z,8056
2016-12-15T13:41:48.048Z,7544
2016-12-15T13:42:48.344Z,6984
2016-12-15T13:43:48.030Z,6312
2016-12-15T13:44:48.021Z,5264
2016-12-15T13:45:48.332Z,3844
2016-12-15T13:46:48.041Z,3188
2016-12-15T13:47:48.318Z,3048
2016-12-15T13:48:47.994Z,2972
2016-12-15T13:49:47.991Z,2868
2016-12-15T13:50:48.297Z,2740
2016-12-15T13:51:47.986Z,2636
2016-12-15T13:52:48.001Z,2604
2016-12-15T13:53:48.587Z,2604
2016-12-15T13:54:48.270Z,2596
2016-12-15T13:55:47.953Z,2552
2016-12-15T13:56:47.945Z,2524
2016-12-15T13:57:47.943Z,2524
2016-12-15T13:58:47.925Z,2520
2016-12-15T13:59:48.256Z,2536
2016-12-15T14:00:47.912Z,2564
2016-12-15T14:01:48.235Z,2556
2016-12-15T14:02:47.909Z,2512